Time,TemperatureF,DewpointF,PressureIn,WindDirection,WindDirectionDegrees,WindSpeedMPH,WindSpeedGustMPH,Humidity,HourlyPrecipIn,Conditions,Clouds,dailyrainin,SoftwareType,DateUTC
2013-04-15 00:00:00,66.2,53.2,29.59,South,180,25.0,28.0,63,0.00,,,0.00,Wunderground v.1.15,2013-04-15 05:00:00,
2013-04-15 00:04:00,66.1,53.1,29.59,SSE,166,26.0,28.0,63,0.00,,,0.00,Wunderground v.1.15,2013-04-15 05:04:00,
2013-04-15 00:06:00,66.1,53.1,29.59,SSE,148,26.0,28.0,63,0.00,,,0.00,Wunderground v.1.15,2013-04-15 05:06:00,
2013-04-15 00:10:00,66.0,53.0,29.59,South,190,25.0,26.0,63,0.00,,,0.00,Wunderground v.1.15,2013-04-15 05:10:00,
2013-04-15 00:20:00,65.9,52.9,29.60,South,184,24.0,44.0,63,0.00,,,0.00,Wunderground v.1.15,2013-04-15 05:20:00,
2013-04-15 00:22:00,65.9,52.9,29.59,South,172,25.0,44.0,63,0.00,,,0.00,Wunderground v.1.15,2013-04-15 05:22:00,
2013-04-15 00:24:00,65.7,53.2,29.60,SSE,167,25.0,44.0,64,0.00,,,0.00,Wunderground v.1.15,2013-04-15 05:24:00,
2013-04-15 00:28:00,65.0,53.4,29.60,SSE,162,26.0,44.0,66,0.00,,,0.00,Wunderground v.1.15,2013-04-15 05:28:00,
2013-04-15 00:30:00,64.5,53.3,29.60,SSE,153,27.0,27.0,67,0.00,,,0.00,Wunderground v.1.15,2013-04-15 05:30:00,
2013-04-15 00:34:00,61.4,57.2,29.61,SE,145,27.0,38.0,86,0.00,,,0.00,Wunderground v.1.15,2013-04-15 05:34:00,
2013-04-15 00:40:00,60.0,57.1,29.62,South,172,27.0,28.0,90,0.00,,,0.01,Wunderground v.1.15,2013-04-15 05:40:00,
2013-04-15 00:42:00,59.7,57.1,29.62,SE,125,28.0,28.0,91,0.00,,,0.01,Wunderground v.1.15,2013-04-15 05:42:00,
2013-04-15 00:44:00,59.6,57.0,29.63,South,179,27.0,29.0,91,0.08,,,0.02,Wunderground v.1.15,2013-04-15 05:44:00,
2013-04-15 00:46:00,59.4,57.1,29.64,SSW,194,27.0,29.0,92,0.08,,,0.02,Wunderground v.1.15,2013-04-15 05:46:00,
2013-04-15 00:50:00,59.0,57.0,29.66,West,280,25.0,25.0,93,0.08,,,0.02,Wunderground v.1.15,2013-04-15 05:50:00,
2013-04-15 00:52:00,58.9,56.9,29.67,SW,228,23.0,25.0,93,0.09,,,0.03,Wunderground v.1.15,2013-04-15 05:52:00,
2013-04-15 00:54:00,58.7,57.0,29.68,WSW,240,22.0,25.0,94,0.86,,,0.06,Wunderground v.1.15,2013-04-15 05:54:00,
2013-04-15 00:58:00,58.3,56.9,29.68,SSW,203,20.0,25.0,95,0.62,,,0.10,Wunderground v.1.15,2013-04-15 05:58:00,
2013-04-15 01:00:00,58.1,56.7,29.68,SSW,212,20.0,20.0,95,0.42,,,0.11,Wunderground v.1.15,2013-04-15 06:00:00,
2013-04-15 01:04:00,57.7,56.6,29.68,WSW,256,17.0,20.0,96,0.41,,,0.14,Wunderground v.1.15,2013-04-15 06:04:00,
2013-04-15 01:06:00,57.5,56.4,29.69,SW,223,15.0,20.0,96,0.25,,,0.15,Wunderground v.1.15,2013-04-15 06:06:00,
2013-04-15 01:10:00,57.2,56.4,29.69,West,271,12.0,12.0,97,0.22,,,0.16,Wunderground v.1.15,2013-04-15 06:10:00,
2013-04-15 01:12:00,57.1,56.3,29.69,WSW,241,10.0,12.0,97,0.24,,,0.17,Wunderground v.1.15,2013-04-15 06:12:00,
2013-04-15 01:14:00,57.0,56.2,29.69,West,280,9.0,12.0,97,0.30,,,0.18,Wunderground v.1.15,2013-04-15 06:14:00,
2013-04-15 01:18:00,56.7,55.9,29.69,SW,217,9.0,12.0,97,0.24,,,0.20,Wunderground v.1.15,2013-04-15 06:18:00,
2013-04-15 01:20:00,56.7,55.9,29.68,SSW,201,9.0,9.0,97,0.31,,,0.21,Wunderground v.1.15,2013-04-15 06:20:00,
2013-04-15 01:22:00,56.7,56.1,29.69,West,266,9.0,9.0,98,0.26,,,0.21,Wunderground v.1.15,2013-04-15 06:22:00,
2013-04-15 01:28:00,56.5,55.9,29.68,SW,233,9.0,9.0,98,0.42,,,0.26,Wunderground v.1.15,2013-04-15 06:28:00,
2013-04-15 01:30:00,56.5,55.9,29.68,SW,218,8.0,11.0,98,0.41,,,0.27,Wunderground v.1.15,2013-04-15 06:30:00,
2013-04-15 01:32:00,56.4,55.8,29.68,SW,218,8.0,11.0,98,0.36,,,0.28,Wunderground v.1.15,2013-04-15 06:32:00,
2013-04-15 01:34:00,56.4,55.8,29.68,SSW,201,8.0,11.0,98,0.36,,,0.30,Wunderground v.1.15,2013-04-15 06:34:00,
2013-04-15 01:40:00,56.3,55.7,29.68,SW,217,9.0,9.0,98,0.37,,,0.34,Wunderground v.1.15,2013-04-15 06:40:00,
2013-04-15 01:42:00,56.2,55.6,29.67,WSW,242,8.0,9.0,98,0.25,,,0.35,Wunderground v.1.15,2013-04-15 06:42:00,
2013-04-15 01:46:00,56.1,55.5,29.67,SW,226,5.0,9.0,98,0.21,,,0.36,Wunderground v.1.15,2013-04-15 06:46:00,
2013-04-15 01:48:00,56.0,55.4,29.67,SSW,207,5.0,9.0,98,0.12,,,0.36,Wunderground v.1.15,2013-04-15 06:48:00,
2013-04-15 01:52:00,55.9,55.3,29.68,West,262,4.0,7.0,98,0.07,,,0.36,Wunderground v.1.15,2013-04-15 06:52:00,
2013-04-15 01:54:00,55.8,55.2,29.68,SSW,208,4.0,7.0,98,0.05,,,0.36,Wunderground v.1.15,2013-04-15 06:54:00,
2013-04-15 02:00:00,55.5,54.9,29.68,West,262,3.0,3.0,98,0.04,,,0.36,Wunderground v.1.15,2013-04-15 07:00:00,
2013-04-15 02:02:00,55.4,54.8,29.68,West,267,3.0,4.0,98,0.00,,,0.36,Wunderground v.1.15,2013-04-15 07:02:00,
2013-04-15 02:04:00,55.3,54.7,29.68,WNW,291,4.0,7.0,98,0.00,,,0.36,Wunderground v.1.15,2013-04-15 07:04:00,
2013-04-15 02:42:00,54.5,54.2,29.68,SSW,212,2.0,7.0,99,0.00,,,0.36,Wunderground v.1.15,2013-04-15 07:42:00,
2013-04-15 02:44:00,54.5,54.2,29.69,SSW,212,2.0,7.0,99,0.00,,,0.36,Wunderground v.1.15,2013-04-15 07:44:00,
2013-04-15 02:48:00,54.4,54.1,29.69,South,187,3.0,7.0,99,0.00,,,0.36,Wunderground v.1.15,2013-04-15 07:48:00,
2013-04-15 02:52:00,54.4,54.1,29.69,SW,233,3.0,7.0,99,0.00,,,0.36,Wunderground v.1.15,2013-04-15 07:52:00,
2013-04-15 02:54:00,54.3,54.0,29.68,SW,223,3.0,7.0,99,0.00,,,0.36,Wunderground v.1.15,2013-04-15 07:54:00,
2013-04-15 02:58:00,54.2,53.9,29.69,SW,236,3.0,7.0,99,0.00,,,0.37,Wunderground v.1.15,2013-04-15 07:58:00,
2013-04-15 03:04:00,54.2,53.9,29.69,SSW,213,4.0,7.0,99,0.00,,,0.37,Wunderground v.1.15,2013-04-15 08:04:00,
2013-04-15 03:10:00,54.1,53.8,29.70,WSW,256,4.0,4.0,99,0.00,,,0.37,Wunderground v.1.15,2013-04-15 08:10:00,
2013-04-15 03:12:00,54.1,53.8,29.70,WSW,256,4.0,7.0,99,0.00,,,0.37,Wunderground v.1.15,2013-04-15 08:12:00,
2013-04-15 03:16:00,54.0,53.7,29.70,West,266,4.0,7.0,99,0.04,,,0.38,Wunderground v.1.15,2013-04-15 08:16:00,
2013-04-15 03:20:00,53.9,53.6,29.70,SW,219,4.0,7.0,99,0.37,,,0.40,Wunderground v.1.15,2013-04-15 08:20:00,
2013-04-15 03:22:00,53.9,53.6,29.71,WSW,242,4.0,7.0,99,0.18,,,0.40,Wunderground v.1.15,2013-04-15 08:22:00,
2013-04-15 03:24:00,53.8,53.5,29.71,WSW,257,5.0,7.0,99,0.11,,,0.40,Wunderground v.1.15,2013-04-15 08:24:00,
2013-04-15 03:28:00,53.8,53.5,29.71,SW,233,4.0,7.0,99,0.08,,,0.41,Wunderground v.1.15,2013-04-15 08:28:00,
2013-04-15 03:32:00,53.7,53.4,29.71,WSW,252,4.0,7.0,99,0.08,,,0.41,Wunderground v.1.15,2013-04-15 08:32:00,
2013-04-15 03:38:00,53.7,53.4,29.71,West,263,4.0,7.0,99,0.05,,,0.41,Wunderground v.1.15,2013-04-15 08:38:00,
2013-04-15 03:40:00,53.6,53.3,29.71,SW,214,4.0,7.0,99,0.04,,,0.41,Wunderground v.1.15,2013-04-15 08:40:00,
2013-04-15 03:42:00,53.7,53.4,29.71,SSE,162,4.0,7.0,99,0.04,,,0.41,Wunderground v.1.15,2013-04-15 08:42:00,
2013-04-15 03:44:00,53.7,53.4,29.71,South,188,4.0,7.0,99,0.00,,,0.41,Wunderground v.1.15,2013-04-15 08:44:00,
2013-04-15 03:46:00,53.7,53.4,29.71,South,183,5.0,7.0,99,0.00,,,0.41,Wunderground v.1.15,2013-04-15 08:46:00,
2013-04-15 03:50:00,53.7,53.4,29.71,South,188,4.0,7.0,99,0.00,,,0.41,Wunderground v.1.15,2013-04-15 08:50:00,
2013-04-15 03:54:00,53.7,53.4,29.71,SW,215,4.0,7.0,99,0.00,,,0.41,Wunderground v.1.15,2013-04-15 08:54:00,
2013-04-15 03:56:00,53.7,53.4,29.70,WSW,238,3.0,7.0,99,0.00,,,0.41,Wunderground v.1.15,2013-04-15 08:56:00,
2013-04-15 03:58:00,53.8,53.5,29.71,SW,214,4.0,7.0,99,0.00,,,0.41,Wunderground v.1.15,2013-04-15 08:58:00,
2013-04-15 04:04:00,53.8,53.5,29.71,SSW,210,4.0,7.0,99,0.00,,,0.41,Wunderground v.1.15,2013-04-15 09:04:00,
2013-04-15 04:10:00,53.8,53.5,29.72,SSW,210,4.0,4.0,99,0.00,,,0.41,Wunderground v.1.15,2013-04-15 09:10:00,
2013-04-15 04:12:00,53.8,53.5,29.72,WSW,242,3.0,7.0,99,0.00,,,0.41,Wunderground v.1.15,2013-04-15 09:12:00,
2013-04-15 04:14:00,53.8,53.5,29.72,SSW,212,3.0,7.0,99,0.00,,,0.41,Wunderground v.1.15,2013-04-15 09:14:00,
2013-04-15 04:18:00,53.7,53.4,29.73,SW,214,4.0,7.0,99,0.00,,,0.41,Wunderground v.1.15,2013-04-15 09:18:00,
2013-04-15 04:20:00,53.7,53.4,29.72,SW,215,3.0,7.0,99,0.00,,,0.41,Wunderground v.1.15,2013-04-15 09:20:00,
2013-04-15 04:22:00,53.7,53.4,29.73,SSW,207,4.0,7.0,99,0.00,,,0.41,Wunderground v.1.15,2013-04-15 09:22:00,
2013-04-15 04:24:00,53.7,53.4,29.73,SW,232,3.0,7.0,99,0.00,,,0.41,Wunderground v.1.15,2013-04-15 09:24:00,
2013-04-15 04:28:00,53.7,53.4,29.72,WSW,252,3.0,7.0,99,0.00,,,0.41,Wunderground v.1.15,2013-04-15 09:28:00,
2013-04-15 04:30:00,53.7,53.4,29.73,SW,215,3.0,3.0,99,0.00,,,0.41,Wunderground v.1.15,2013-04-15 09:30:00,
2013-04-15 04:32:00,53.7,53.4,29.73,WSW,249,3.0,7.0,99,0.00,,,0.41,Wunderground v.1.15,2013-04-15 09:32:00,
2013-04-15 04:38:00,53.6,53.3,29.72,SSW,211,2.0,7.0,99,0.00,,,0.41,Wunderground v.1.15,2013-04-15 09:38:00,
2013-04-15 04:40:00,53.6,53.3,29.72,SW,231,2.0,7.0,99,0.00,,,0.41,Wunderground v.1.15,2013-04-15 09:40:00,
2013-04-15 04:42:00,53.5,53.2,29.72,South,187,2.0,7.0,99,0.00,,,0.41,Wunderground v.1.15,2013-04-15 09:42:00,
2013-04-15 04:46:00,53.5,53.2,29.72,SSW,192,2.0,7.0,99,0.00,,,0.41,Wunderground v.1.15,2013-04-15 09:46:00,
2013-04-15 04:48:00,53.5,53.2,29.72,SSW,212,2.0,7.0,99,0.00,,,0.41,Wunderground v.1.15,2013-04-15 09:48:00,
2013-04-15 04:50:00,53.4,53.1,29.72,South,174,2.0,2.0,99,0.00,,,0.41,Wunderground v.1.15,2013-04-15 09:50:00,
2013-04-15 04:54:00,53.4,53.1,29.72,South,176,2.0,7.0,99,0.00,,,0.41,Wunderground v.1.15,2013-04-15 09:54:00,
2013-04-15 04:58:00,53.3,53.0,29.73,South,188,2.0,7.0,99,0.00,,,0.41,Wunderground v.1.15,2013-04-15 09:58:00,
2013-04-15 05:00:00,53.3,53.0,29.73,South,183,2.0,2.0,99,0.00,,,0.41,Wunderground v.1.15,2013-04-15 10:00:00,
2013-04-15 05:02:00,53.2,52.9,29.72,SSE,158,2.0,7.0,99,0.00,,,0.41,Wunderground v.1.15,2013-04-15 10:02:00,
2013-04-15 05:08:00,53.1,52.8,29.72,SSE,158,1.0,7.0,99,0.00,,,0.41,Wunderground v.1.15,2013-04-15 10:08:00,
2013-04-15 05:10:00,53.1,52.8,29.73,SSE,162,1.0,7.0,99,0.00,,,0.41,Wunderground v.1.15,2013-04-15 10:10:00,
2013-04-15 05:18:00,52.9,52.6,29.72,SE,141,1.0,7.0,99,0.00,,,0.41,Wunderground v.1.15,2013-04-15 10:18:00,
2013-04-15 05:20:00,52.8,52.5,29.72,SE,137,1.0,7.0,99,0.00,,,0.41,Wunderground v.1.15,2013-04-15 10:20:00,
2013-04-15 05:22:00,52.7,52.4,29.71,ESE,122,1.0,7.0,99,0.00,,,0.41,Wunderground v.1.15,2013-04-15 10:22:00,
2013-04-15 05:28:00,52.5,52.2,29.71,SE,138,3.0,7.0,99,0.00,,,0.41,Wunderground v.1.15,2013-04-15 10:28:00,
2013-04-15 05:32:00,52.4,52.1,29.72,SSE,166,3.0,7.0,99,0.00,,,0.41,Wunderground v.1.15,2013-04-15 10:32:00,
2013-04-15 05:34:00,52.2,51.9,29.72,SSE,167,3.0,7.0,99,0.00,,,0.41,Wunderground v.1.15,2013-04-15 10:34:00,
2013-04-15 05:38:00,52.0,51.7,29.72,SSE,158,1.0,7.0,99,0.00,,,0.41,Wunderground v.1.15,2013-04-15 10:38:00,
2013-04-15 05:40:00,51.9,51.6,29.72,SSE,162,1.0,7.0,99,0.00,,,0.41,Wunderground v.1.15,2013-04-15 10:40:00,
2013-04-15 05:44:00,52.0,51.7,29.74,South,181,2.0,7.0,99,0.00,,,0.41,Wunderground v.1.15,2013-04-15 10:44:00,
2013-04-15 05:48:00,51.8,51.5,29.74,SSE,158,3.0,7.0,99,0.00,,,0.41,Wunderground v.1.15,2013-04-15 10:48:00,
2013-04-15 05:50:00,51.8,51.8,29.74,South,170,3.0,3.0,100,0.00,,,0.41,Wunderground v.1.15,2013-04-15 10:50:00,
2013-04-15 05:54:00,51.8,51.8,29.74,SE,144,2.0,7.0,100,0.00,,,0.41,Wunderground v.1.15,2013-04-15 10:54:00,
2013-04-15 05:56:00,51.7,51.7,29.73,SE,124,2.0,7.0,100,0.00,,,0.41,Wunderground v.1.15,2013-04-15 10:56:00,
2013-04-15 06:00:00,51.7,51.7,29.74,SE,141,2.0,7.0,100,0.00,,,0.41,Wunderground v.1.15,2013-04-15 11:00:00,
2013-04-15 06:06:00,51.7,51.7,29.73,SE,124,4.0,7.0,100,0.00,,,0.41,Wunderground v.1.15,2013-04-15 11:06:00,
2013-04-15 06:08:00,51.8,51.8,29.73,ESE,120,4.0,7.0,100,0.00,,,0.41,Wunderground v.1.15,2013-04-15 11:08:00,
2013-04-15 06:12:00,51.7,51.7,29.73,SE,129,5.0,7.0,100,0.00,,,0.41,Wunderground v.1.15,2013-04-15 11:12:00,
2013-04-15 06:20:00,51.6,51.6,29.72,SE,124,6.0,7.0,100,0.00,,,0.41,Wunderground v.1.15,2013-04-15 11:20:00,
2013-04-15 06:22:00,51.6,51.6,29.72,SE,132,6.0,7.0,100,0.00,,,0.41,Wunderground v.1.15,2013-04-15 11:22:00,
2013-04-15 06:24:00,51.6,51.6,29.72,SE,129,6.0,7.0,100,0.00,,,0.41,Wunderground v.1.15,2013-04-15 11:24:00,
2013-04-15 06:30:00,51.5,51.5,29.73,SE,134,5.0,5.0,100,0.00,,,0.41,Wunderground v.1.15,2013-04-15 11:30:00,
2013-04-15 06:32:00,51.6,51.6,29.73,SE,134,4.0,7.0,100,0.00,,,0.41,Wunderground v.1.15,2013-04-15 11:32:00,
2013-04-15 06:34:00,51.6,51.6,29.74,SE,139,3.0,7.0,100,0.00,,,0.41,Wunderground v.1.15,2013-04-15 11:34:00,
2013-04-15 06:36:00,51.6,51.6,29.74,SE,146,3.0,7.0,100,0.00,,,0.41,Wunderground v.1.15,2013-04-15 11:36:00,
2013-04-15 06:42:00,51.7,51.7,29.74,SE,146,2.0,7.0,100,0.00,,,0.41,Wunderground v.1.15,2013-04-15 11:42:00,
2013-04-15 06:44:00,51.7,51.7,29.75,SSE,160,1.0,7.0,100,0.00,,,0.41,Wunderground v.1.15,2013-04-15 11:44:00,
2013-04-15 06:48:00,51.7,51.7,29.74,SSE,153,1.0,7.0,100,0.00,,,0.41,Wunderground v.1.15,2013-04-15 11:48:00,
2013-04-15 06:50:00,51.7,51.7,29.74,SSE,156,1.0,7.0,100,0.00,,,0.41,Wunderground v.1.15,2013-04-15 11:50:00,
2013-04-15 06:54:00,51.6,51.6,29.75,SSE,156,1.0,7.0,100,0.00,,,0.41,Wunderground v.1.15,2013-04-15 11:54:00,
2013-04-15 06:58:00,51.6,51.6,29.75,South,183,1.0,7.0,100,0.00,,,0.41,Wunderground v.1.15,2013-04-15 11:58:00,
2013-04-15 07:02:00,51.8,51.8,29.75,SSW,201,2.0,7.0,100,0.00,,,0.41,Wunderground v.1.15,2013-04-15 12:02:00,
2013-04-15 07:04:00,51.9,51.9,29.75,South,174,2.0,7.0,100,0.00,,,0.41,Wunderground v.1.15,2013-04-15 12:04:00,
2013-04-15 07:08:00,51.8,51.8,29.75,South,191,3.0,7.0,100,0.00,,,0.41,Wunderground v.1.15,2013-04-15 12:08:00,
2013-04-15 07:10:00,51.9,51.9,29.75,South,183,3.0,7.0,100,0.00,,,0.41,Wunderground v.1.15,2013-04-15 12:10:00,
2013-04-15 07:14:00,52.0,52.0,29.74,South,173,4.0,7.0,100,0.00,,,0.41,Wunderground v.1.15,2013-04-15 12:14:00,
2013-04-15 07:18:00,52.3,52.3,29.75,South,188,4.0,7.0,100,0.00,,,0.41,Wunderground v.1.15,2013-04-15 12:18:00,
2013-04-15 07:20:00,52.4,52.4,29.75,SSW,200,4.0,4.0,100,0.00,,,0.41,Wunderground v.1.15,2013-04-15 12:20:00,
2013-04-15 07:24:00,52.6,52.6,29.75,South,177,3.0,7.0,100,0.00,,,0.41,Wunderground v.1.15,2013-04-15 12:24:00,
2013-04-15 07:30:00,52.9,52.9,29.74,SSE,150,2.0,7.0,100,0.00,,,0.41,Wunderground v.1.15,2013-04-15 12:30:00,
2013-04-15 07:38:00,53.4,53.4,29.76,SW,218,3.0,7.0,100,0.00,,,0.41,Wunderground v.1.15,2013-04-15 12:38:00,
2013-04-15 07:42:00,53.4,53.4,29.76,SW,226,3.0,7.0,100,0.00,,,0.41,Wunderground v.1.15,2013-04-15 12:42:00,
2013-04-15 07:44:00,53.4,53.4,29.76,SW,225,3.0,7.0,100,0.00,,,0.41,Wunderground v.1.15,2013-04-15 12:44:00,
2013-04-15 07:50:00,53.4,53.4,29.75,South,172,3.0,7.0,100,0.00,,,0.41,Wunderground v.1.15,2013-04-15 12:50:00,
2013-04-15 07:54:00,53.5,53.5,29.75,SW,224,3.0,7.0,100,0.00,,,0.41,Wunderground v.1.15,2013-04-15 12:54:00,
2013-04-15 07:58:00,53.6,53.6,29.76,SW,224,3.0,7.0,100,0.00,,,0.41,Wunderground v.1.15,2013-04-15 12:58:00,
2013-04-15 08:00:00,53.6,53.6,29.76,SSW,212,3.0,7.0,100,0.00,,,0.41,Wunderground v.1.15,2013-04-15 13:00:00,
2013-04-15 08:04:00,53.5,53.5,29.75,WSW,246,4.0,7.0,100,0.00,,,0.41,Wunderground v.1.15,2013-04-15 13:04:00,
2013-04-15 08:06:00,53.5,53.5,29.75,SSW,197,4.0,7.0,100,0.00,,,0.41,Wunderground v.1.15,2013-04-15 13:06:00,
2013-04-15 08:10:00,53.5,53.5,29.75,SW,218,4.0,4.0,100,0.00,,,0.41,Wunderground v.1.15,2013-04-15 13:10:00,
2013-04-15 08:12:00,53.5,53.5,29.75,SW,224,4.0,7.0,100,0.00,,,0.41,Wunderground v.1.15,2013-04-15 13:12:00,
2013-04-15 08:18:00,53.6,53.6,29.75,SW,222,4.0,7.0,100,0.00,,,0.41,Wunderground v.1.15,2013-04-15 13:18:00,
2013-04-15 08:20:00,53.6,53.6,29.76,SW,217,4.0,7.0,100,0.00,,,0.41,Wunderground v.1.15,2013-04-15 13:20:00,
2013-04-15 08:22:00,53.7,53.7,29.76,South,176,4.0,7.0,100,0.00,,,0.41,Wunderground v.1.15,2013-04-15 13:22:00,
2013-04-15 08:24:00,53.7,53.7,29.75,South,174,4.0,7.0,100,0.00,,,0.41,Wunderground v.1.15,2013-04-15 13:24:00,
2013-04-15 08:28:00,53.9,53.9,29.77,West,262,4.0,7.0,100,0.00,,,0.41,Wunderground v.1.15,2013-04-15 13:28:00,
2013-04-15 08:30:00,53.9,53.9,29.77,SW,214,5.0,7.0,100,0.00,,,0.41,Wunderground v.1.15,2013-04-15 13:30:00,
2013-04-15 08:34:00,54.0,54.0,29.77,SW,225,6.0,7.0,100,0.00,,,0.41,Wunderground v.1.15,2013-04-15 13:34:00,
2013-04-15 08:36:00,54.1,54.1,29.77,SSW,212,6.0,7.0,100,0.00,,,0.41,Wunderground v.1.15,2013-04-15 13:36:00,
2013-04-15 08:42:00,54.2,54.2,29.77,SSW,204,6.0,7.0,100,0.00,,,0.41,Wunderground v.1.15,2013-04-15 13:42:00,
2013-04-15 08:46:00,54.5,54.5,29.76,SW,214,5.0,7.0,100,0.00,,,0.41,Wunderground v.1.15,2013-04-15 13:46:00,
2013-04-15 08:50:00,54.6,54.6,29.77,SW,218,6.0,7.0,100,0.00,,,0.41,Wunderground v.1.15,2013-04-15 13:50:00,
2013-04-15 08:52:00,54.6,54.6,29.77,SW,214,6.0,10.0,100,0.00,,,0.41,Wunderground v.1.15,2013-04-15 13:52:00,
2013-04-15 08:58:00,54.7,54.7,29.77,WSW,240,7.0,10.0,100,0.00,,,0.41,Wunderground v.1.15,2013-04-15 13:58:00,
2013-04-15 09:00:00,54.8,54.8,29.78,SSW,203,7.0,10.0,100,0.00,,,0.41,Wunderground v.1.15,2013-04-15 14:00:00,
2013-04-15 09:06:00,54.8,54.8,29.77,SSW,208,8.0,10.0,100,0.00,,,0.41,Wunderground v.1.15,2013-04-15 14:06:00,
2013-04-15 09:08:00,54.8,54.8,29.78,SSW,212,9.0,10.0,100,0.00,,,0.41,Wunderground v.1.15,2013-04-15 14:08:00,
2013-04-15 09:12:00,54.8,54.8,29.78,SW,218,9.0,12.0,100,0.00,,,0.41,Wunderground v.1.15,2013-04-15 14:12:00,
2013-04-15 09:16:00,55.0,55.0,29.78,SW,218,10.0,12.0,100,0.00,,,0.41,Wunderground v.1.15,2013-04-15 14:16:00,
2013-04-15 09:20:00,54.9,54.9,29.78,SSW,210,10.0,10.0,100,0.00,,,0.41,Wunderground v.1.15,2013-04-15 14:20:00,
2013-04-15 09:22:00,54.9,54.9,29.78,SW,228,9.0,10.0,100,0.00,,,0.41,Wunderground v.1.15,2013-04-15 14:22:00,
2013-04-15 09:24:00,54.9,54.9,29.78,WSW,248,9.0,10.0,100,0.00,,,0.41,Wunderground v.1.15,2013-04-15 14:24:00,
2013-04-15 09:28:00,55.0,55.0,29.78,West,270,8.0,10.0,100,0.00,,,0.41,Wunderground v.1.15,2013-04-15 14:28:00,
2013-04-15 09:32:00,54.9,54.9,29.78,WSW,245,8.0,8.0,100,0.00,,,0.41,Wunderground v.1.15,2013-04-15 14:32:00,
2013-04-15 09:38:00,54.9,54.9,29.78,SW,221,8.0,9.0,100,0.00,,,0.41,Wunderground v.1.15,2013-04-15 14:38:00,
2013-04-15 09:44:00,55.2,55.2,29.78,SW,224,8.0,8.0,100,0.00,,,0.41,Wunderground v.1.15,2013-04-15 14:44:00,
2013-04-15 09:50:00,55.3,55.3,29.78,WSW,253,7.0,7.0,100,0.00,,,0.41,Wunderground v.1.15,2013-04-15 14:50:00,
2013-04-15 09:52:00,55.3,55.3,29.78,WSW,240,6.0,8.0,100,0.00,,,0.41,Wunderground v.1.15,2013-04-15 14:52:00,
2013-04-15 09:54:00,55.2,55.2,29.78,WSW,242,7.0,13.0,100,0.00,,,0.41,Wunderground v.1.15,2013-04-15 14:54:00,
2013-04-15 09:58:00,55.2,55.2,29.78,SW,236,7.0,13.0,100,0.00,,,0.41,Wunderground v.1.15,2013-04-15 14:58:00,
2013-04-15 10:00:00,55.2,55.2,29.78,West,271,7.0,7.0,100,0.00,,,0.41,Wunderground v.1.15,2013-04-15 15:00:00,
2013-04-15 10:08:00,55.4,55.1,29.78,WSW,250,7.0,11.0,99,0.00,,,0.41,Wunderground v.1.15,2013-04-15 15:08:00,
2013-04-15 10:10:00,55.4,55.1,29.78,WSW,238,7.0,8.0,99,0.00,,,0.41,Wunderground v.1.15,2013-04-15 15:10:00,
2013-04-15 10:12:00,55.5,55.2,29.78,SW,221,8.0,8.0,99,0.00,,,0.41,Wunderground v.1.15,2013-04-15 15:12:00,
2013-04-15 10:18:00,55.8,55.5,29.78,WSW,239,8.0,11.0,99,0.00,,,0.41,Wunderground v.1.15,2013-04-15 15:18:00,
2013-04-15 10:20:00,56.0,55.7,29.78,SSW,208,7.0,7.0,99,0.00,,,0.41,Wunderground v.1.15,2013-04-15 15:20:00,
2013-04-15 10:28:00,56.0,55.7,29.79,SSW,210,8.0,9.0,99,0.00,,,0.41,Wunderground v.1.15,2013-04-15 15:28:00,
2013-04-15 10:34:00,55.8,55.5,29.79,SSW,205,9.0,16.0,99,0.00,,,0.41,Wunderground v.1.15,2013-04-15 15:34:00,
2013-04-15 10:38:00,55.8,55.5,29.78,SW,236,10.0,16.0,99,0.00,,,0.41,Wunderground v.1.15,2013-04-15 15:38:00,
2013-04-15 10:40:00,56.0,55.7,29.78,WSW,249,10.0,10.0,99,0.00,,,0.41,Wunderground v.1.15,2013-04-15 15:40:00,
2013-04-15 10:44:00,56.2,55.9,29.78,SW,233,10.0,12.0,99,0.00,,,0.41,Wunderground v.1.15,2013-04-15 15:44:00,
2013-04-15 10:48:00,56.5,56.2,29.78,SW,222,10.0,12.0,99,0.00,,,0.41,Wunderground v.1.15,2013-04-15 15:48:00,
2013-04-15 10:50:00,56.5,56.2,29.78,SW,222,9.0,11.0,99,0.00,,,0.41,Wunderground v.1.15,2013-04-15 15:50:00,
2013-04-15 10:52:00,56.5,56.2,29.78,SW,225,10.0,11.0,99,0.00,,,0.41,Wunderground v.1.15,2013-04-15 15:52:00,
2013-04-15 10:58:00,57.2,56.9,29.78,SW,230,10.0,11.0,99,0.00,,,0.41,Wunderground v.1.15,2013-04-15 15:58:00,
2013-04-15 11:00:00,57.5,57.2,29.78,WSW,250,10.0,10.0,99,0.00,,,0.41,Wunderground v.1.15,2013-04-15 16:00:00,
2013-04-15 11:04:00,58.0,56.6,29.78,SW,217,10.0,13.0,95,0.00,,,0.41,Wunderground v.1.15,2013-04-15 16:04:00,
2013-04-15 11:06:00,58.2,56.5,29.78,SW,228,11.0,13.0,94,0.00,,,0.41,Wunderground v.1.15,2013-04-15 16:06:00,
2013-04-15 11:08:00,58.4,55.8,29.78,SW,217,11.0,13.0,91,0.00,,,0.41,Wunderground v.1.15,2013-04-15 16:08:00,
2013-04-15 11:12:00,58.7,56.1,29.78,SW,222,11.0,13.0,91,0.00,,,0.41,Wunderground v.1.15,2013-04-15 16:12:00,
2013-04-15 11:18:00,59.0,55.4,29.78,SSW,212,11.0,13.0,88,0.00,,,0.41,Wunderground v.1.15,2013-04-15 16:18:00,
2013-04-15 11:24:00,59.3,56.1,29.78,SW,233,10.0,14.0,89,0.00,,,0.41,Wunderground v.1.15,2013-04-15 16:24:00,
2013-04-15 11:28:00,59.5,56.3,29.78,SW,217,10.0,14.0,89,0.00,,,0.41,Wunderground v.1.15,2013-04-15 16:28:00,
2013-04-15 11:34:00,59.4,55.8,29.78,SSW,212,11.0,14.0,88,0.00,,,0.41,Wunderground v.1.15,2013-04-15 16:34:00,
2013-04-15 11:36:00,59.5,55.9,29.79,SW,222,11.0,14.0,88,0.00,,,0.41,Wunderground v.1.15,2013-04-15 16:36:00,
2013-04-15 11:38:00,59.6,56.4,29.79,SSW,195,11.0,14.0,89,0.00,,,0.41,Wunderground v.1.15,2013-04-15 16:38:00,
2013-04-15 11:42:00,59.9,56.3,29.79,SW,236,11.0,14.0,88,0.00,,,0.41,Wunderground v.1.15,2013-04-15 16:42:00,
2013-04-15 11:44:00,60.3,57.0,29.79,SW,226,10.0,14.0,89,0.00,,,0.41,Wunderground v.1.15,2013-04-15 16:44:00,
2013-04-15 11:48:00,60.4,56.5,29.79,WSW,238,10.0,14.0,87,0.00,,,0.41,Wunderground v.1.15,2013-04-15 16:48:00,
2013-04-15 11:52:00,61.1,57.2,29.79,South,176,10.0,12.0,87,0.00,,,0.41,Wunderground v.1.15,2013-04-15 16:52:00,
2013-04-15 11:54:00,61.1,56.6,29.79,SSW,208,10.0,12.0,85,0.00,,,0.41,Wunderground v.1.15,2013-04-15 16:54:00,
2013-04-15 11:58:00,61.1,57.5,29.79,SSW,205,10.0,12.0,88,0.00,,,0.41,Wunderground v.1.15,2013-04-15 16:58:00,
2013-04-15 12:02:00,60.7,56.2,29.78,SSW,198,10.0,17.0,85,0.00,,,0.41,Wunderground v.1.15,2013-04-15 17:02:00,
2013-04-15 12:04:00,60.9,57.0,29.78,WSW,257,11.0,17.0,87,0.00,,,0.41,Wunderground v.1.15,2013-04-15 17:04:00,
2013-04-15 12:06:00,60.9,56.4,29.78,SSW,210,11.0,17.0,85,0.00,,,0.41,Wunderground v.1.15,2013-04-15 17:06:00,
2013-04-15 12:10:00,60.9,57.3,29.79,SW,215,13.0,13.0,88,0.00,,,0.41,Wunderground v.1.15,2013-04-15 17:10:00,
2013-04-15 12:14:00,61.1,56.9,29.79,SW,229,14.0,20.0,86,0.00,,,0.41,Wunderground v.1.15,2013-04-15 17:14:00,
2013-04-15 12:18:00,61.2,56.7,29.78,SSW,198,15.0,20.0,85,0.00,,,0.41,Wunderground v.1.15,2013-04-15 17:18:00,
2013-04-15 12:20:00,61.5,56.3,29.78,SW,214,14.0,14.0,83,0.00,,,0.41,Wunderground v.1.15,2013-04-15 17:20:00,
2013-04-15 12:22:00,61.6,56.0,29.78,SW,226,14.0,14.0,82,0.00,,,0.41,Wunderground v.1.15,2013-04-15 17:22:00,
2013-04-15 12:24:00,61.5,55.3,29.78,SW,229,13.0,15.0,80,0.00,,,0.41,Wunderground v.1.15,2013-04-15 17:24:00,
2013-04-15 12:30:00,61.8,55.9,29.78,SW,233,14.0,15.0,81,0.00,,,0.41,Wunderground v.1.15,2013-04-15 17:30:00,
2013-04-15 12:32:00,62.0,56.4,29.78,SW,236,14.0,21.0,82,0.00,,,0.41,Wunderground v.1.15,2013-04-15 17:32:00,
2013-04-15 12:34:00,62.1,56.2,29.78,South,186,14.0,21.0,81,0.00,,,0.41,Wunderground v.1.15,2013-04-15 17:34:00,
2013-04-15 12:44:00,63.0,53.8,29.78,SW,217,15.0,15.0,72,0.00,,,0.41,Wunderground v.1.15,2013-04-15 17:44:00,
2013-04-15 12:46:00,62.9,54.5,29.78,SSW,205,15.0,19.0,74,0.00,,,0.41,Wunderground v.1.15,2013-04-15 17:46:00,
2013-04-15 12:50:00,63.0,54.9,29.78,SSW,194,16.0,19.0,75,0.00,,,0.41,Wunderground v.1.15,2013-04-15 17:50:00,
2013-04-15 12:54:00,63.1,53.9,29.79,SSW,207,14.0,14.0,72,0.00,,,0.41,Wunderground v.1.15,2013-04-15 17:54:00,
2013-04-15 12:56:00,63.1,54.3,29.79,SW,231,13.0,14.0,73,0.00,,,0.41,Wunderground v.1.15,2013-04-15 17:56:00,
2013-04-15 12:58:00,63.0,53.4,29.78,SW,223,13.0,16.0,71,0.00,,,0.41,Wunderground v.1.15,2013-04-15 17:58:00,
2013-04-15 13:00:00,63.0,54.2,29.79,SW,221,13.0,13.0,73,0.00,,,0.41,Wunderground v.1.15,2013-04-15 18:00:00,
2013-04-15 13:02:00,62.8,54.8,29.79,SW,219,12.0,13.0,75,0.00,,,0.41,Wunderground v.1.15,2013-04-15 18:02:00,
2013-04-15 13:06:00,62.6,55.6,29.79,WSW,242,12.0,13.0,78,0.00,,,0.41,Wunderground v.1.15,2013-04-15 18:06:00,
2013-04-15 13:08:00,62.4,53.6,29.79,SW,229,12.0,13.0,73,0.00,,,0.41,Wunderground v.1.15,2013-04-15 18:08:00,
2013-04-15 13:10:00,62.4,53.6,29.79,WSW,248,12.0,13.0,73,0.00,,,0.41,Wunderground v.1.15,2013-04-15 18:10:00,
2013-04-15 13:12:00,62.3,50.8,29.79,SW,214,12.0,13.0,66,0.00,,,0.41,Wunderground v.1.15,2013-04-15 18:12:00,
2013-04-15 13:18:00,62.5,51.8,29.79,SW,231,12.0,16.0,68,0.00,,,0.41,Wunderground v.1.15,2013-04-15 18:18:00,
2013-04-15 13:20:00,62.2,52.3,29.80,WSW,256,13.0,13.0,70,0.00,,,0.41,Wunderground v.1.15,2013-04-15 18:20:00,
2013-04-15 13:22:00,62.0,51.7,29.80,SSW,210,13.0,13.0,69,0.00,,,0.41,Wunderground v.1.15,2013-04-15 18:22:00,
2013-04-15 13:24:00,62.0,52.1,29.80,WSW,238,13.0,13.0,70,0.00,,,0.41,Wunderground v.1.15,2013-04-15 18:24:00,
2013-04-15 13:26:00,61.9,52.4,29.80,SW,233,12.0,16.0,71,0.00,,,0.41,Wunderground v.1.15,2013-04-15 18:26:00,
2013-04-15 13:30:00,61.6,52.5,29.80,WNW,285,13.0,13.0,72,0.00,,,0.41,Wunderground v.1.15,2013-04-15 18:30:00,
2013-04-15 13:32:00,61.6,54.0,29.80,SW,233,12.0,13.0,76,0.00,,,0.41,Wunderground v.1.15,2013-04-15 18:32:00,
2013-04-15 13:36:00,61.4,53.4,29.80,SW,219,12.0,15.0,75,0.00,,,0.41,Wunderground v.1.15,2013-04-15 18:36:00,
2013-04-15 13:38:00,61.3,53.3,29.81,SSW,204,11.0,15.0,75,0.00,,,0.41,Wunderground v.1.15,2013-04-15 18:38:00,
2013-04-15 13:42:00,61.2,53.9,29.80,SW,222,11.0,14.0,77,0.00,,,0.41,Wunderground v.1.15,2013-04-15 18:42:00,
2013-04-15 13:46:00,61.1,53.8,29.80,SW,226,10.0,14.0,77,0.00,,,0.41,Wunderground v.1.15,2013-04-15 18:46:00,
2013-04-15 13:48:00,61.2,54.3,29.81,WSW,250,9.0,14.0,78,0.00,,,0.41,Wunderground v.1.15,2013-04-15 18:48:00,
2013-04-15 13:50:00,61.3,54.7,29.80,SW,226,9.0,9.0,79,0.00,,,0.41,Wunderground v.1.15,2013-04-15 18:50:00,
2013-04-15 13:52:00,61.4,55.2,29.81,WSW,238,9.0,9.0,80,0.00,,,0.41,Wunderground v.1.15,2013-04-15 18:52:00,
2013-04-15 13:56:00,61.6,52.5,29.81,WSW,239,9.0,11.0,72,0.00,,,0.41,Wunderground v.1.15,2013-04-15 18:56:00,
2013-04-15 13:58:00,61.8,50.7,29.81,WNW,298,9.0,11.0,67,0.00,,,0.41,Wunderground v.1.15,2013-04-15 18:58:00,
2013-04-15 14:00:00,62.0,50.9,29.81,SW,233,10.0,10.0,67,0.00,,,0.41,Wunderground v.1.15,2013-04-15 19:00:00,
2013-04-15 14:04:00,62.4,48.3,29.81,WSW,248,10.0,10.0,60,0.00,,,0.41,Wunderground v.1.15,2013-04-15 19:04:00,
2013-04-15 14:06:00,62.5,49.7,29.81,SW,224,10.0,12.0,63,0.00,,,0.41,Wunderground v.1.15,2013-04-15 19:06:00,
2013-04-15 14:08:00,62.5,49.3,29.81,West,274,10.0,12.0,62,0.00,,,0.41,Wunderground v.1.15,2013-04-15 19:08:00,
2013-04-15 14:10:00,62.5,48.4,29.81,SSW,212,10.0,10.0,60,0.00,,,0.41,Wunderground v.1.15,2013-04-15 19:10:00,
2013-04-15 14:14:00,62.5,49.3,29.81,SW,226,11.0,13.0,62,0.00,,,0.41,Wunderground v.1.15,2013-04-15 19:14:00,
2013-04-15 14:16:00,62.5,49.7,29.81,SSW,212,11.0,13.0,63,0.00,,,0.41,Wunderground v.1.15,2013-04-15 19:16:00,
2013-04-15 14:22:00,62.3,47.3,29.81,WNW,288,11.0,11.0,58,0.00,,,0.41,Wunderground v.1.15,2013-04-15 19:22:00,
2013-04-15 14:24:00,62.2,46.8,29.81,SW,222,10.0,12.0,57,0.00,,,0.41,Wunderground v.1.15,2013-04-15 19:24:00,
2013-04-15 14:30:00,62.0,46.6,29.82,SW,226,10.0,14.0,57,0.00,,,0.41,Wunderground v.1.15,2013-04-15 19:30:00,
2013-04-15 14:32:00,61.9,47.4,29.82,SW,225,10.0,16.0,59,0.00,,,0.41,Wunderground v.1.15,2013-04-15 19:32:00,
2013-04-15 14:36:00,61.9,47.9,29.82,West,259,11.0,16.0,60,0.00,,,0.41,Wunderground v.1.15,2013-04-15 19:36:00,
2013-04-15 14:40:00,61.8,46.9,29.82,SSW,212,11.0,12.0,58,0.00,,,0.41,Wunderground v.1.15,2013-04-15 19:40:00,
2013-04-15 14:42:00,61.7,45.4,29.82,SW,226,12.0,12.0,55,0.00,,,0.41,Wunderground v.1.15,2013-04-15 19:42:00,
2013-04-15 14:46:00,61.7,45.4,29.81,WSW,241,12.0,12.0,55,0.00,,,0.41,Wunderground v.1.15,2013-04-15 19:46:00,
2013-04-15 14:48:00,61.6,45.3,29.81,WNW,302,12.0,12.0,55,0.00,,,0.41,Wunderground v.1.15,2013-04-15 19:48:00,
2013-04-15 14:54:00,61.4,45.6,29.82,SW,219,11.0,16.0,56,0.00,,,0.41,Wunderground v.1.15,2013-04-15 19:54:00,
2013-04-15 14:56:00,61.3,45.0,29.82,SW,228,10.0,16.0,55,0.00,,,0.41,Wunderground v.1.15,2013-04-15 19:56:00,
2013-04-15 14:58:00,61.1,45.7,29.83,West,271,10.0,16.0,57,0.00,,,0.41,Wunderground v.1.15,2013-04-15 19:58:00,
2013-04-15 15:00:00,61.0,45.7,29.83,SSW,205,11.0,11.0,57,0.00,,,0.41,Wunderground v.1.15,2013-04-15 20:00:00,
2013-04-15 15:02:00,60.9,46.5,29.83,West,267,11.0,11.0,59,0.00,,,0.41,Wunderground v.1.15,2013-04-15 20:02:00,
2013-04-15 15:04:00,60.8,46.8,29.83,West,266,10.0,11.0,60,0.00,,,0.41,Wunderground v.1.15,2013-04-15 20:04:00,
2013-04-15 15:06:00,60.8,47.7,29.83,West,278,10.0,11.0,62,0.00,,,0.41,Wunderground v.1.15,2013-04-15 20:06:00,
2013-04-15 15:12:00,59.9,47.7,29.83,WNW,285,13.0,20.0,64,0.00,,,0.41,Wunderground v.1.15,2013-04-15 20:12:00,
2013-04-15 15:16:00,59.3,47.1,29.83,WNW,300,17.0,20.0,64,0.00,,,0.41,Wunderground v.1.15,2013-04-15 20:16:00,
2013-04-15 15:18:00,59.1,46.9,29.82,WNW,291,18.0,20.0,64,0.00,,,0.41,Wunderground v.1.15,2013-04-15 20:18:00,
2013-04-15 15:20:00,59.0,47.2,29.83,WNW,302,18.0,18.0,65,0.00,,,0.41,Wunderground v.1.15,2013-04-15 20:20:00,
2013-04-15 15:24:00,58.6,47.3,29.83,WNW,298,17.0,21.0,66,0.00,,,0.41,Wunderground v.1.15,2013-04-15 20:24:00,
2013-04-15 15:26:00,58.3,46.6,29.83,WNW,303,17.0,21.0,65,0.00,,,0.41,Wunderground v.1.15,2013-04-15 20:26:00,
2013-04-15 15:28:00,58.0,47.1,29.83,WNW,301,17.0,21.0,67,0.00,,,0.41,Wunderground v.1.15,2013-04-15 20:28:00,
2013-04-15 15:30:00,57.8,46.9,29.83,West,281,17.0,17.0,67,0.00,,,0.41,Wunderground v.1.15,2013-04-15 20:30:00,
2013-04-15 15:32:00,57.6,46.7,29.83,NW,307,18.0,18.0,67,0.00,,,0.41,Wunderground v.1.15,2013-04-15 20:32:00,
2013-04-15 15:34:00,57.4,47.3,29.84,WNW,294,18.0,18.0,69,0.00,,,0.41,Wunderground v.1.15,2013-04-15 20:34:00,
2013-04-15 15:38:00,56.8,46.3,29.85,WNW,294,18.0,25.0,68,0.00,,,0.41,Wunderground v.1.15,2013-04-15 20:38:00,
2013-04-15 15:40:00,56.5,46.4,29.86,West,278,18.0,18.0,69,0.00,,,0.41,Wunderground v.1.15,2013-04-15 20:40:00,
2013-04-15 15:42:00,56.3,47.0,29.85,WNW,302,18.0,18.0,71,0.00,,,0.41,Wunderground v.1.15,2013-04-15 20:42:00,
2013-04-15 15:48:00,55.6,46.0,29.86,NNW,328,16.0,18.0,70,0.00,,,0.41,Wunderground v.1.15,2013-04-15 20:48:00,
2013-04-15 15:50:00,55.4,46.2,29.85,WNW,296,14.0,14.0,71,0.00,,,0.41,Wunderground v.1.15,2013-04-15 20:50:00,
2013-04-15 15:52:00,55.3,46.4,29.86,WNW,283,14.0,14.0,72,0.00,,,0.41,Wunderground v.1.15,2013-04-15 20:52:00,
2013-04-15 15:54:00,55.1,46.2,29.86,NW,311,13.0,14.0,72,0.00,,,0.41,Wunderground v.1.15,2013-04-15 20:54:00,
2013-04-15 15:58:00,54.7,45.8,29.86,NW,304,12.0,14.0,72,0.00,,,0.41,Wunderground v.1.15,2013-04-15 20:58:00,
2013-04-15 16:00:00,54.6,46.1,29.85,NW,315,11.0,12.0,73,0.00,,,0.41,Wunderground v.1.15,2013-04-15 21:00:00,
2013-04-15 16:02:00,54.4,45.2,29.85,NW,312,11.0,13.0,71,0.00,,,0.41,Wunderground v.1.15,2013-04-15 21:02:00,
2013-04-15 16:04:00,54.3,45.5,29.85,NW,318,11.0,13.0,72,0.00,,,0.41,Wunderground v.1.15,2013-04-15 21:04:00,
2013-04-15 16:08:00,54.1,46.0,29.86,WNW,292,11.0,13.0,74,0.00,,,0.41,Wunderground v.1.15,2013-04-15 21:08:00,
2013-04-15 16:10:00,54.0,45.5,29.87,WNW,295,11.0,12.0,73,0.00,,,0.41,Wunderground v.1.15,2013-04-15 21:10:00,
2013-04-15 16:14:00,53.8,45.0,29.86,NW,314,10.0,12.0,72,0.00,,,0.41,Wunderground v.1.15,2013-04-15 21:14:00,
2013-04-15 16:16:00,53.7,45.2,29.85,NW,307,10.0,12.0,73,0.00,,,0.41,Wunderground v.1.15,2013-04-15 21:16:00,
2013-04-15 16:18:00,53.6,45.5,29.85,WNW,292,9.0,12.0,74,0.00,,,0.41,Wunderground v.1.15,2013-04-15 21:18:00,
2013-04-15 16:20:00,53.5,45.8,29.84,NW,317,9.0,9.0,75,0.00,,,0.41,Wunderground v.1.15,2013-04-15 21:20:00,
2013-04-15 16:22:00,53.4,46.4,29.84,NW,307,9.0,9.0,77,0.00,,,0.41,Wunderground v.1.15,2013-04-15 21:22:00,
2013-04-15 16:26:00,53.2,46.2,29.85,NW,314,8.0,9.0,77,0.00,,,0.41,Wunderground v.1.15,2013-04-15 21:26:00,
2013-04-15 16:28:00,53.1,45.4,29.86,NW,310,8.0,11.0,75,0.00,,,0.41,Wunderground v.1.15,2013-04-15 21:28:00,
2013-04-15 16:30:00,53.1,45.7,29.86,WNW,288,8.0,8.0,76,0.00,,,0.41,Wunderground v.1.15,2013-04-15 21:30:00,
2013-04-15 16:32:00,53.1,45.7,29.85,NW,308,8.0,9.0,76,0.00,,,0.41,Wunderground v.1.15,2013-04-15 21:32:00,
2013-04-15 16:38:00,53.0,45.3,29.86,WNW,294,8.0,11.0,75,0.00,,,0.41,Wunderground v.1.15,2013-04-15 21:38:00,
2013-04-15 16:40:00,53.0,45.3,29.86,NW,326,8.0,9.0,75,0.00,,,0.41,Wunderground v.1.15,2013-04-15 21:40:00,
2013-04-15 16:44:00,53.0,44.9,29.86,NW,321,8.0,10.0,74,0.00,,,0.41,Wunderground v.1.15,2013-04-15 21:44:00,
2013-04-15 16:46:00,53.0,45.3,29.86,NW,310,8.0,10.0,75,0.00,,,0.41,Wunderground v.1.15,2013-04-15 21:46:00,
2013-04-15 16:48:00,52.9,44.5,29.87,NW,314,9.0,10.0,73,0.00,,,0.41,Wunderground v.1.15,2013-04-15 21:48:00,